sensor_id;sensor_type;location;lat;lon;timestamp;temperature;humidity
51305;HTU21D;37392;50.964;6.952;2023-02-05T00:00:24;6.91;116.25
51305;HTU21D;37392;50.964;6.952;2023-02-05T00:02:50;6.94;117.79
51305;HTU21D;37392;50.964;6.952;2023-02-05T00:05:15;6.87;117.72
51305;HTU21D;37392;50.964;6.952;2023-02-05T00:07:41;6.79;118.54
51305;HTU21D;37392;50.964;6.952;2023-02-05T00:10:07;6.79;-4.95
51305;HTU21D;37392;50.964;6.952;2023-02-05T00:12:33;6.73;-5.52
51305;HTU21D;37392;50.964;6.952;2023-02-05T00:14:58;6.78;-4.62
51305;HTU21D;37392;50.964;6.952;2023-02-05T00:17:24;6.72;-4.50
51305;HTU21D;37392;50.964;6.952;2023-02-05T00:19:49;6.69;-4.71
51305;HTU21D;37392;50.964;6.952;2023-02-05T00:22:15;6.68;-3.89
51305;HTU21D;37392;50.964;6.952;2023-02-05T00:24:41;6.69;-2.85
51305;HTU21D;37392;50.964;6.952;2023-02-05T00:27:06;6.69;-2.86
51305;HTU21D;37392;50.964;6.952;2023-02-05T00:29:34;6.71;-3.16
51305;HTU21D;37392;50.964;6.952;2023-02-05T00:31:59;6.72;-2.80
51305;HTU21D;37392;50.964;6.952;2023-02-05T00:34:25;6.76;-2.99
51305;HTU21D;37392;50.964;6.952;2023-02-05T00:36:50;6.72;-2.88
51305;HTU21D;37392;50.964;6.952;2023-02-05T00:39:16;6.75;-2.55
51305;HTU21D;37392;50.964;6.952;2023-02-05T00:41:43;6.74;-2.05
51305;HTU21D;37392;50.964;6.952;2023-02-05T00:44:08;6.79;-1.92
51305;HTU21D;37392;50.964;6.952;2023-02-05T00:46:34;6.75;-1.87
51305;HTU21D;37392;50.964;6.952;2023-02-05T00:49:00;6.76;-1.69
51305;HTU21D;37392;50.964;6.952;2023-02-05T00:51:25;6.73;-1.94
51305;HTU21D;37392;50.964;6.952;2023-02-05T00:53:51;6.74;-1.41
51305;HTU21D;37392;50.964;6.952;2023-02-05T00:56:16;6.80;-1.50
51305;HTU21D;37392;50.964;6.952;2023-02-05T00:58:42;6.78;-1.57
51305;HTU21D;37392;50.964;6.952;2023-02-05T01:01:12;6.78;-1.25
51305;HTU21D;37392;50.964;6.952;2023-02-05T01:03:39;6.78;-1.04
51305;HTU21D;37392;50.964;6.952;2023-02-05T01:06:05;6.75;-1.02
51305;HTU21D;37392;50.964;6.952;2023-02-05T01:08:31;6.74;-0.92
51305;HTU21D;37392;50.964;6.952;2023-02-05T01:10:57;6.75;-0.88
51305;HTU21D;37392;50.964;6.952;2023-02-05T01:13:23;6.82;-0.87
51305;HTU21D;37392;50.964;6.952;2023-02-05T01:15:49;6.75;-1.11
51305;HTU21D;37392;50.964;6.952;2023-02-05T01:18:14;6.78;-1.22
51305;HTU21D;37392;50.964;6.952;2023-02-05T01:20:41;6.69;-1.58
51305;HTU21D;37392;50.964;6.952;2023-02-05T01:23:08;6.68;-1.03
51305;HTU21D;37392;50.964;6.952;2023-02-05T01:25:34;6.66;-0.71
51305;HTU21D;37392;50.964;6.952;2023-02-05T01:28:00;6.65;-0.75
51305;HTU21D;37392;50.964;6.952;2023-02-05T01:30:26;6.66;-0.99
51305;HTU21D;37392;50.964;6.952;2023-02-05T01:32:51;6.68;-0.72
51305;HTU21D;37392;50.964;6.952;2023-02-05T01:35:17;6.68;-0.37
51305;HTU21D;37392;50.964;6.952;2023-02-05T01:37:43;6.67;-0.19
51305;HTU21D;37392;50.964;6.952;2023-02-05T01:40:12;6.71;-0.09
51305;HTU21D;37392;50.964;6.952;2023-02-05T01:42:39;6.69;-0.13
51305;HTU21D;37392;50.964;6.952;2023-02-05T01:47:46;6.68;-0.03
51305;HTU21D;37392;50.964;6.952;2023-02-05T01:50:12;6.72;0.05
51305;HTU21D;37392;50.964;6.952;2023-02-05T01:52:39;6.70;0.02
51305;HTU21D;37392;50.964;6.952;2023-02-05T01:55:06;6.71;0.32
51305;HTU21D;37392;50.964;6.952;2023-02-05T01:57:32;6.70;0.24
51305;HTU21D;37392;50.964;6.952;2023-02-05T01:59:58;6.66;0.00
51305;HTU21D;37392;50.964;6.952;2023-02-05T02:02:24;6.59;-0.12
51305;HTU21D;37392;50.964;6.952;2023-02-05T02:04:56;6.58;0.06
51305;HTU21D;37392;50.964;6.952;2023-02-05T02:07:25;6.55;-0.57
51305;HTU21D;37392;50.964;6.952;2023-02-05T02:09:51;6.55;-0.44
51305;HTU21D;37392;50.964;6.952;2023-02-05T02:12:20;6.53;-0.51
51305;HTU21D;37392;50.964;6.952;2023-02-05T02:14:50;6.53;-0.95
51305;HTU21D;37392;50.964;6.952;2023-02-05T02:17:18;6.46;-1.86
51305;HTU21D;37392;50.964;6.952;2023-02-05T02:20:06;6.37;-1.69
51305;HTU21D;37392;50.964;6.952;2023-02-05T02:22:40;6.30;-1.35
51305;HTU21D;37392;50.964;6.952;2023-02-05T02:27:57;6.24;-0.80
51305;HTU21D;37392;50.964;6.952;2023-02-05T02:30:39;6.23;-0.82
51305;HTU21D;37392;50.964;6.952;2023-02-05T02:33:18;6.21;-0.58
51305;HTU21D;37392;50.964;6.952;2023-02-05T02:36:09;6.16;-0.12
51305;HTU21D;37392;50.964;6.952;2023-02-05T02:38:44;6.19;-0.14
51305;HTU21D;37392;50.964;6.952;2023-02-05T02:41:24;6.17;0.06
51305;HTU21D;37392;50.964;6.952;2023-02-05T02:46:49;6.22;0.34
51305;HTU21D;37392;50.964;6.952;2023-02-05T02:49:25;6.23;0.50
51305;HTU21D;37392;50.964;6.952;2023-02-05T02:51:56;6.24;0.61
51305;HTU21D;37392;50.964;6.952;2023-02-05T02:54:24;6.23;0.67
51305;HTU21D;37392;50.964;6.952;2023-02-05T02:56:51;6.22;0.92
51305;HTU21D;37392;50.964;6.952;2023-02-05T02:59:20;6.25;1.00
51305;HTU21D;37392;50.964;6.952;2023-02-05T03:01:52;6.28;1.08
51305;HTU21D;37392;50.964;6.952;2023-02-05T03:04:28;6.31;1.28
51305;HTU21D;37392;50.964;6.952;2023-02-05T03:07:04;6.37;1.42
51305;HTU21D;37392;50.964;6.952;2023-02-05T03:09:59;6.42;1.42
51305;HTU21D;37392;50.964;6.952;2023-02-05T03:12:25;6.46;1.51
51305;HTU21D;37392;50.964;6.952;2023-02-05T03:14:51;6.49;1.38
51305;HTU21D;37392;50.964;6.952;2023-02-05T03:17:18;6.51;1.43
51305;HTU21D;37392;50.964;6.952;2023-02-05T03:19:45;6.53;1.47
51305;HTU21D;37392;50.964;6.952;2023-02-05T03:22:13;6.57;1.55
51305;HTU21D;37392;50.964;6.952;2023-02-05T03:24:39;6.58;1.55
51305;HTU21D;37392;50.964;6.952;2023-02-05T03:27:04;6.63;1.58
51305;HTU21D;37392;50.964;6.952;2023-02-05T03:29:37;6.68;1.69
51305;HTU21D;37392;50.964;6.952;2023-02-05T03:35:11;6.73;1.67
51305;HTU21D;37392;50.964;6.952;2023-02-05T03:40:54;6.68;1.32
51305;HTU21D;37392;50.964;6.952;2023-02-05T03:43:40;6.66;1.46
51305;HTU21D;37392;50.964;6.952;2023-02-05T03:51:49;6.66;1.32
51305;HTU21D;37392;50.964;6.952;2023-02-05T03:54:35;6.66;1.52
51305;HTU21D;37392;50.964;6.952;2023-02-05T03:57:17;6.70;1.45
51305;HTU21D;37392;50.964;6.952;2023-02-05T03:59:48;6.71;1.48
51305;HTU21D;37392;50.964;6.952;2023-02-05T04:02:16;6.72;1.56
51305;HTU21D;37392;50.964;6.952;2023-02-05T04:04:42;6.75;1.32
51305;HTU21D;37392;50.964;6.952;2023-02-05T04:07:07;6.76;1.23
51305;HTU21D;37392;50.964;6.952;2023-02-05T04:09:33;6.78;1.20
51305;HTU21D;37392;50.964;6.952;2023-02-05T04:11:58;6.78;1.19
51305;HTU21D;37392;50.964;6.952;2023-02-05T04:14:24;6.75;1.23
51305;HTU21D;37392;50.964;6.952;2023-02-05T04:16:49;6.81;1.35
51305;HTU21D;37392;50.964;6.952;2023-02-05T04:19:15;6.85;1.37
51305;HTU21D;37392;50.964;6.952;2023-02-05T04:21:41;6.91;1.42
51305;HTU21D;37392;50.964;6.952;2023-02-05T04:24:06;6.94;1.24
51305;HTU21D;37392;50.964;6.952;2023-02-05T04:26:32;6.94;1.23
51305;HTU21D;37392;50.964;6.952;2023-02-05T04:28:57;7.00;1.23
51305;HTU21D;37392;50.964;6.952;2023-02-05T04:31:23;7.01;1.11
51305;HTU21D;37392;50.964;6.952;2023-02-05T04:33:49;7.01;0.89
51305;HTU21D;37392;50.964;6.952;2023-02-05T04:36:14;7.02;0.85
51305;HTU21D;37392;50.964;6.952;2023-02-05T04:38:40;7.01;0.82
51305;HTU21D;37392;50.964;6.952;2023-02-05T04:41:06;7.03;0.94
51305;HTU21D;37392;50.964;6.952;2023-02-05T04:43:32;7.04;1.04
51305;HTU21D;37392;50.964;6.952;2023-02-05T04:46:04;7.07;0.98
51305;HTU21D;37392;50.964;6.952;2023-02-05T04:48:32;7.05;0.94
51305;HTU21D;37392;50.964;6.952;2023-02-05T04:50:58;7.11;0.91
51305;HTU21D;37392;50.964;6.952;2023-02-05T04:53:24;7.10;1.00
51305;HTU21D;37392;50.964;6.952;2023-02-05T04:55:50;7.10;0.97
51305;HTU21D;37392;50.964;6.952;2023-02-05T04:58:16;7.10;0.90
51305;HTU21D;37392;50.964;6.952;2023-02-05T05:00:41;7.13;0.77
51305;HTU21D;37392;50.964;6.952;2023-02-05T05:03:07;7.11;0.81
51305;HTU21D;37392;50.964;6.952;2023-02-05T05:05:35;7.14;1.07
51305;HTU21D;37392;50.964;6.952;2023-02-05T05:08:01;7.10;0.84
51305;HTU21D;37392;50.964;6.952;2023-02-05T05:10:27;7.04;0.91
51305;HTU21D;37392;50.964;6.952;2023-02-05T05:12:52;7.01;0.37
51305;HTU21D;37392;50.964;6.952;2023-02-05T05:15:18;6.98;0.48
51305;HTU21D;37392;50.964;6.952;2023-02-05T05:17:43;6.95;0.84
51305;HTU21D;37392;50.964;6.952;2023-02-05T05:20:09;6.95;0.99
51305;HTU21D;37392;50.964;6.952;2023-02-05T05:22:35;6.94;1.14
51305;HTU21D;37392;50.964;6.952;2023-02-05T05:25:01;6.91;1.24
51305;HTU21D;37392;50.964;6.952;2023-02-05T05:27:27;6.89;1.38
51305;HTU21D;37392;50.964;6.952;2023-02-05T05:29:53;6.94;1.37
51305;HTU21D;37392;50.964;6.952;2023-02-05T05:32:18;6.89;1.32
51305;HTU21D;37392;50.964;6.952;2023-02-05T05:34:44;6.89;1.54
51305;HTU21D;37392;50.964;6.952;2023-02-05T05:37:09;6.85;1.63
51305;HTU21D;37392;50.964;6.952;2023-02-05T05:39:35;6.83;1.64
51305;HTU21D;37392;50.964;6.952;2023-02-05T05:42:19;6.81;1.71
51305;HTU21D;37392;50.964;6.952;2023-02-05T05:45:03;6.83;1.90
51305;HTU21D;37392;50.964;6.952;2023-02-05T05:47:29;6.80;2.03
51305;HTU21D;37392;50.964;6.952;2023-02-05T05:49:54;6.76;1.99
51305;HTU21D;37392;50.964;6.952;2023-02-05T05:52:20;6.80;2.09
51305;HTU21D;37392;50.964;6.952;2023-02-05T05:54:46;6.83;2.14
51305;HTU21D;37392;50.964;6.952;2023-02-05T05:57:11;6.85;2.26
51305;HTU21D;37392;50.964;6.952;2023-02-05T05:59:37;6.87;2.37
51305;HTU21D;37392;50.964;6.952;2023-02-05T06:02:02;6.89;2.53
51305;HTU21D;37392;50.964;6.952;2023-02-05T06:04:28;6.94;2.57
51305;HTU21D;37392;50.964;6.952;2023-02-05T06:06:54;6.94;2.56
51305;HTU21D;37392;50.964;6.952;2023-02-05T06:09:20;6.97;2.58
51305;HTU21D;37392;50.964;6.952;2023-02-05T06:11:47;7.01;2.67
51305;HTU21D;37392;50.964;6.952;2023-02-05T06:14:12;7.01;2.54
51305;HTU21D;37392;50.964;6.952;2023-02-05T06:16:39;7.01;2.55
51305;HTU21D;37392;50.964;6.952;2023-02-05T06:19:05;6.99;2.51
51305;HTU21D;37392;50.964;6.952;2023-02-05T06:21:31;6.95;2.48
51305;HTU21D;37392;50.964;6.952;2023-02-05T06:23:56;6.96;2.39
51305;HTU21D;37392;50.964;6.952;2023-02-05T06:26:22;6.95;2.47
51305;HTU21D;37392;50.964;6.952;2023-02-05T06:28:48;6.95;2.55
51305;HTU21D;37392;50.964;6.952;2023-02-05T06:31:13;6.98;2.59
51305;HTU21D;37392;50.964;6.952;2023-02-05T06:33:39;6.94;2.57
51305;HTU21D;37392;50.964;6.952;2023-02-05T06:36:05;6.91;2.61
51305;HTU21D;37392;50.964;6.952;2023-02-05T06:38:31;6.95;2.64
51305;HTU21D;37392;50.964;6.952;2023-02-05T06:40:56;6.88;2.61
51305;HTU21D;37392;50.964;6.952;2023-02-05T06:43:22;6.89;2.67
51305;HTU21D;37392;50.964;6.952;2023-02-05T06:45:47;6.86;2.72
51305;HTU21D;37392;50.964;6.952;2023-02-05T06:48:13;6.87;2.72
51305;HTU21D;37392;50.964;6.952;2023-02-05T06:50:38;6.86;2.71
51305;HTU21D;37392;50.964;6.952;2023-02-05T06:53:04;6.86;2.62
51305;HTU21D;37392;50.964;6.952;2023-02-05T06:55:30;6.86;2.54
51305;HTU21D;37392;50.964;6.952;2023-02-05T06:57:55;6.85;2.55
51305;HTU21D;37392;50.964;6.952;2023-02-05T07:00:21;6.88;2.58
51305;HTU21D;37392;50.964;6.952;2023-02-05T07:02:46;6.87;2.54
51305;HTU21D;37392;50.964;6.952;2023-02-05T07:05:12;6.88;2.38
51305;HTU21D;37392;50.964;6.952;2023-02-05T07:07:37;6.88;2.37
51305;HTU21D;37392;50.964;6.952;2023-02-05T07:10:04;6.91;2.48
51305;HTU21D;37392;50.964;6.952;2023-02-05T07:12:30;6.90;2.48
51305;HTU21D;37392;50.964;6.952;2023-02-05T07:14:55;6.91;2.56
51305;HTU21D;37392;50.964;6.952;2023-02-05T07:17:21;6.91;2.51
51305;HTU21D;37392;50.964;6.952;2023-02-05T07:19:47;6.91;2.57
51305;HTU21D;37392;50.964;6.952;2023-02-05T07:22:13;6.95;2.67
51305;HTU21D;37392;50.964;6.952;2023-02-05T07:24:39;6.91;2.67
51305;HTU21D;37392;50.964;6.952;2023-02-05T07:27:04;6.95;2.59
51305;HTU21D;37392;50.964;6.952;2023-02-05T07:29:30;6.98;2.66
51305;HTU21D;37392;50.964;6.952;2023-02-05T07:31:56;7.01;2.67
51305;HTU21D;37392;50.964;6.952;2023-02-05T07:34:21;7.04;2.70
51305;HTU21D;37392;50.964;6.952;2023-02-05T07:36:51;7.03;2.58
51305;HTU21D;37392;50.964;6.952;2023-02-05T07:39:17;7.10;2.65
51305;HTU21D;37392;50.964;6.952;2023-02-05T07:41:43;7.10;2.53
51305;HTU21D;37392;50.964;6.952;2023-02-05T07:44:08;7.08;2.57
51305;HTU21D;37392;50.964;6.952;2023-02-05T07:46:34;7.09;2.72
51305;HTU21D;37392;50.964;6.952;2023-02-05T07:48:59;7.13;2.87
51305;HTU21D;37392;50.964;6.952;2023-02-05T07:51:25;7.14;2.86
51305;HTU21D;37392;50.964;6.952;2023-02-05T07:53:51;7.14;2.66
51305;HTU21D;37392;50.964;6.952;2023-02-05T07:56:17;7.13;2.75
51305;HTU21D;37392;50.964;6.952;2023-02-05T07:58:46;7.16;2.80
51305;HTU21D;37392;50.964;6.952;2023-02-05T08:01:12;7.16;2.83
51305;HTU21D;37392;50.964;6.952;2023-02-05T08:03:38;7.18;2.74
51305;HTU21D;37392;50.964;6.952;2023-02-05T08:06:04;7.15;2.61
51305;HTU21D;37392;50.964;6.952;2023-02-05T08:08:31;7.17;2.43
51305;HTU21D;37392;50.964;6.952;2023-02-05T08:11:00;7.16;2.45
51305;HTU21D;37392;50.964;6.952;2023-02-05T08:13:28;7.17;2.16
51305;HTU21D;37392;50.964;6.952;2023-02-05T08:15:53;7.13;1.81
51305;HTU21D;37392;50.964;6.952;2023-02-05T08:18:19;7.15;1.77
51305;HTU21D;37392;50.964;6.952;2023-02-05T08:20:45;7.14;1.79
51305;HTU21D;37392;50.964;6.952;2023-02-05T08:23:11;7.12;1.83
51305;HTU21D;37392;50.964;6.952;2023-02-05T08:25:39;7.14;1.93
51305;HTU21D;37392;50.964;6.952;2023-02-05T08:28:05;7.11;1.75
51305;HTU21D;37392;50.964;6.952;2023-02-05T08:30:31;7.14;1.93
51305;HTU21D;37392;50.964;6.952;2023-02-05T08:32:56;7.12;1.90
51305;HTU21D;37392;50.964;6.952;2023-02-05T08:35:22;7.14;2.01
51305;HTU21D;37392;50.964;6.952;2023-02-05T08:37:47;7.14;1.87
51305;HTU21D;37392;50.964;6.952;2023-02-05T08:40:13;7.13;1.51
51305;HTU21D;37392;50.964;6.952;2023-02-05T08:42:39;7.11;1.46
51305;HTU21D;37392;50.964;6.952;2023-02-05T08:45:05;7.12;1.61
51305;HTU21D;37392;50.964;6.952;2023-02-05T08:47:34;7.13;1.59
51305;HTU21D;37392;50.964;6.952;2023-02-05T08:50:02;7.16;1.63
51305;HTU21D;37392;50.964;6.952;2023-02-05T08:52:28;7.16;1.87
51305;HTU21D;37392;50.964;6.952;2023-02-05T08:54:54;7.20;2.10
51305;HTU21D;37392;50.964;6.952;2023-02-05T08:57:20;7.22;1.86
51305;HTU21D;37392;50.964;6.952;2023-02-05T08:59:45;7.20;1.61
51305;HTU21D;37392;50.964;6.952;2023-02-05T09:02:15;7.20;1.79
51305;HTU21D;37392;50.964;6.952;2023-02-05T09:04:40;7.18;1.40
51305;HTU21D;37392;50.964;6.952;2023-02-05T09:07:06;7.11;0.78
51305;HTU21D;37392;50.964;6.952;2023-02-05T09:09:32;7.14;0.70
51305;HTU21D;37392;50.964;6.952;2023-02-05T09:11:59;7.10;-0.23
51305;HTU21D;37392;50.964;6.952;2023-02-05T09:14:25;7.03;-0.49
51305;HTU21D;37392;50.964;6.952;2023-02-05T09:16:51;6.95;-1.09
51305;HTU21D;37392;50.964;6.952;2023-02-05T09:19:17;6.83;-2.32
51305;HTU21D;37392;50.964;6.952;2023-02-05T09:21:42;6.74;-2.99
51305;HTU21D;37392;50.964;6.952;2023-02-05T09:24:08;6.68;-3.66
51305;HTU21D;37392;50.964;6.952;2023-02-05T09:26:34;6.64;-3.38
51305;HTU21D;37392;50.964;6.952;2023-02-05T09:29:01;6.64;-3.55
51305;HTU21D;37392;50.964;6.952;2023-02-05T09:31:27;6.61;-4.44
51305;HTU21D;37392;50.964;6.952;2023-02-05T09:33:53;6.71;-4.74
51305;HTU21D;37392;50.964;6.952;2023-02-05T09:36:21;6.70;-5.94
51305;HTU21D;37392;50.964;6.952;2023-02-05T09:38:48;6.71;118.83
51305;HTU21D;37392;50.964;6.952;2023-02-05T09:41:28;6.65;-5.79
51305;HTU21D;37392;50.964;6.952;2023-02-05T09:44:39;6.66;-5.60
51305;HTU21D;37392;50.964;6.952;2023-02-05T09:47:19;6.58;116.80
51305;HTU21D;37392;50.964;6.952;2023-02-05T09:50:05;6.58;118.97
51305;HTU21D;37392;50.964;6.952;2023-02-05T09:52:46;6.59;-5.93
51305;HTU21D;37392;50.964;6.952;2023-02-05T09:55:21;6.61;118.28
51305;HTU21D;37392;50.964;6.952;2023-02-05T09:57:52;6.65;-5.81
51305;HTU21D;37392;50.964;6.952;2023-02-05T10:00:23;6.63;-5.78
51305;HTU21D;37392;50.964;6.952;2023-02-05T10:02:57;6.55;-5.52
51305;HTU21D;37392;50.964;6.952;2023-02-05T10:05:37;6.55;-5.22
51305;HTU21D;37392;50.964;6.952;2023-02-05T10:08:40;6.49;-4.91
51305;HTU21D;37392;50.964;6.952;2023-02-05T10:11:29;6.50;-4.89
51305;HTU21D;37392;50.964;6.952;2023-02-05T10:14:11;6.51;118.72
51305;HTU21D;37392;50.964;6.952;2023-02-05T10:17:03;6.52;-5.93
51305;HTU21D;37392;50.964;6.952;2023-02-05T10:23:14;6.58;-4.89
51305;HTU21D;37392;50.964;6.952;2023-02-05T10:25:48;6.58;-5.89
51305;HTU21D;37392;50.964;6.952;2023-02-05T10:28:49;6.61;-5.21
51305;HTU21D;37392;50.964;6.952;2023-02-05T10:37:32;6.73;-4.43
51305;HTU21D;37392;50.964;6.952;2023-02-05T10:40:14;6.70;-3.60
51305;HTU21D;37392;50.964;6.952;2023-02-05T10:43:04;6.67;-3.02
51305;HTU21D;37392;50.964;6.952;2023-02-05T10:45:47;6.65;-2.78
51305;HTU21D;37392;50.964;6.952;2023-02-05T10:51:09;6.68;-1.96
51305;HTU21D;37392;50.964;6.952;2023-02-05T10:53:47;6.71;-2.41
51305;HTU21D;37392;50.964;6.952;2023-02-05T10:56:17;6.72;-1.95
51305;HTU21D;37392;50.964;6.952;2023-02-05T10:58:51;6.80;-1.26
51305;HTU21D;37392;50.964;6.952;2023-02-05T11:01:30;6.89;-1.07
51305;HTU21D;37392;50.964;6.952;2023-02-05T11:04:12;6.84;-1.52
51305;HTU21D;37392;50.964;6.952;2023-02-05T11:06:43;6.89;-1.19
51305;HTU21D;37392;50.964;6.952;2023-02-05T11:11:54;6.91;-0.80
51305;HTU21D;37392;50.964;6.952;2023-02-05T11:14:26;6.91;-1.35
51305;HTU21D;37392;50.964;6.952;2023-02-05T11:16:55;6.91;-1.28
51305;HTU21D;37392;50.964;6.952;2023-02-05T11:19:22;6.89;-1.30
51305;HTU21D;37392;50.964;6.952;2023-02-05T11:21:53;6.85;-1.51
51305;HTU21D;37392;50.964;6.952;2023-02-05T11:24:32;6.82;-1.38
51305;HTU21D;37392;50.964;6.952;2023-02-05T11:29:48;6.91;-1.08
51305;HTU21D;37392;50.964;6.952;2023-02-05T11:32:32;6.87;-1.35
51305;HTU21D;37392;50.964;6.952;2023-02-05T11:40:52;6.95;-0.92
51305;HTU21D;37392;50.964;6.952;2023-02-05T11:43:31;6.95;-0.96
51305;HTU21D;37392;50.964;6.952;2023-02-05T11:45:59;7.00;-0.76
51305;HTU21D;37392;50.964;6.952;2023-02-05T11:51:27;6.97;-1.07
51305;HTU21D;37392;50.964;6.952;2023-02-05T11:54:29;6.89;-1.21
51305;HTU21D;37392;50.964;6.952;2023-02-05T11:57:06;6.83;-0.64
51305;HTU21D;37392;50.964;6.952;2023-02-05T11:59:39;6.89;-0.29
51305;HTU21D;37392;50.964;6.952;2023-02-05T12:05:23;6.94;-0.53
51305;HTU21D;37392;50.964;6.952;2023-02-05T12:08:14;6.94;-0.82
51305;HTU21D;37392;50.964;6.952;2023-02-05T12:16:49;6.85;-0.77
51305;HTU21D;37392;50.964;6.952;2023-02-05T12:19:54;6.83;-1.70
51305;HTU21D;37392;50.964;6.952;2023-02-05T12:25:27;6.76;-2.03
51305;HTU21D;37392;50.964;6.952;2023-02-05T12:28:03;6.74;-1.14
51305;HTU21D;37392;50.964;6.952;2023-02-05T12:30:53;6.69;-1.41
51305;HTU21D;37392;50.964;6.952;2023-02-05T12:37:14;6.57;-1.57
51305;HTU21D;37392;50.964;6.952;2023-02-05T12:39:52;6.61;-1.19
51305;HTU21D;37392;50.964;6.952;2023-02-05T12:50:45;6.53;-1.36
51305;HTU21D;37392;50.964;6.952;2023-02-05T13:02:16;6.49;-1.74
51305;HTU21D;37392;50.964;6.952;2023-02-05T13:07:32;6.50;-1.74
51305;HTU21D;37392;50.964;6.952;2023-02-05T13:10:06;6.50;-2.17
51305;HTU21D;37392;50.964;6.952;2023-02-05T13:12:44;6.49;-1.84
51305;HTU21D;37392;50.964;6.952;2023-02-05T13:15:18;6.50;-1.29
51305;HTU21D;37392;50.964;6.952;2023-02-05T13:18:04;6.53;-0.98
51305;HTU21D;37392;50.964;6.952;2023-02-05T13:20:57;6.51;-1.19
51305;HTU21D;37392;50.964;6.952;2023-02-05T13:23:44;6.52;-0.67
51305;HTU21D;37392;50.964;6.952;2023-02-05T13:26:34;6.54;-0.90
51305;HTU21D;37392;50.964;6.952;2023-02-05T13:29:24;6.48;-1.44
51305;HTU21D;37392;50.964;6.952;2023-02-05T13:31:56;6.40;-1.54
51305;HTU21D;37392;50.964;6.952;2023-02-05T13:34:26;6.39;-1.64
51305;HTU21D;37392;50.964;6.952;2023-02-05T13:49:03;6.28;-2.52
51305;HTU21D;37392;50.964;6.952;2023-02-05T13:51:49;6.25;-2.57
51305;HTU21D;37392;50.964;6.952;2023-02-05T14:00:15;6.23;-3.33
51305;HTU21D;37392;50.964;6.952;2023-02-05T14:02:47;6.23;-3.34
51305;HTU21D;37392;50.964;6.952;2023-02-05T14:05:28;6.23;-4.12
51305;HTU21D;37392;50.964;6.952;2023-02-05T14:07:56;6.23;-3.87
51305;HTU21D;37392;50.964;6.952;2023-02-05T14:10:35;6.24;-4.76
51305;HTU21D;37392;50.964;6.952;2023-02-05T14:13:09;6.22;-4.76
51305;HTU21D;37392;50.964;6.952;2023-02-05T14:15:50;6.24;-4.15
51305;HTU21D;37392;50.964;6.952;2023-02-05T14:27:03;6.38;117.84
51305;HTU21D;37392;50.964;6.952;2023-02-05T14:32:56;6.45;116.76
51305;HTU21D;37392;50.964;6.952;2023-02-05T14:35:36;6.46;116.13
51305;HTU21D;37392;50.964;6.952;2023-02-05T14:38:32;6.50;115.84
51305;HTU21D;37392;50.964;6.952;2023-02-05T14:43:38;6.51;115.68
51305;HTU21D;37392;50.964;6.952;2023-02-05T14:46:17;6.49;115.03
51305;HTU21D;37392;50.964;6.952;2023-02-05T14:48:46;6.49;115.51
51305;HTU21D;37392;50.964;6.952;2023-02-05T14:51:33;6.44;115.37
51305;HTU21D;37392;50.964;6.952;2023-02-05T14:54:10;6.43;115.64
51305;HTU21D;37392;50.964;6.952;2023-02-05T14:56:45;6.40;114.75
51305;HTU21D;37392;50.964;6.952;2023-02-05T14:59:30;6.34;115.86
51305;HTU21D;37392;50.964;6.952;2023-02-05T15:03:06;6.33;116.17
51305;HTU21D;37392;50.964;6.952;2023-02-05T15:05:40;6.33;116.22
51305;HTU21D;37392;50.964;6.952;2023-02-05T15:08:25;6.36;115.51
51305;HTU21D;37392;50.964;6.952;2023-02-05T15:19:32;6.33;114.64
51305;HTU21D;37392;50.964;6.952;2023-02-05T15:22:04;6.29;114.96
51305;HTU21D;37392;50.964;6.952;2023-02-05T15:24:43;6.27;115.16
51305;HTU21D;37392;50.964;6.952;2023-02-05T15:27:17;6.31;113.17
51305;HTU21D;37392;50.964;6.952;2023-02-05T15:29:47;6.35;112.79
51305;HTU21D;37392;50.964;6.952;2023-02-05T15:32:40;6.37;114.05
51305;HTU21D;37392;50.964;6.952;2023-02-05T15:35:13;6.36;114.12
51305;HTU21D;37392;50.964;6.952;2023-02-05T15:38:03;6.39;114.13
51305;HTU21D;37392;50.964;6.952;2023-02-05T15:40:46;6.41;114.19
51305;HTU21D;37392;50.964;6.952;2023-02-05T15:43:18;6.42;114.04
51305;HTU21D;37392;50.964;6.952;2023-02-05T15:45:46;6.46;113.13
51305;HTU21D;37392;50.964;6.952;2023-02-05T15:48:22;6.50;112.38
51305;HTU21D;37392;50.964;6.952;2023-02-05T15:51:39;6.52;111.33
51305;HTU21D;37392;50.964;6.952;2023-02-05T15:54:00;6.53;110.48
51305;HTU21D;37392;50.964;6.952;2023-02-05T15:59:11;6.55;109.49
51305;HTU21D;37392;50.964;6.952;2023-02-05T16:01:49;6.56;109.40
51305;HTU21D;37392;50.964;6.952;2023-02-05T16:04:26;6.59;109.59
51305;HTU21D;37392;50.964;6.952;2023-02-05T16:07:00;6.61;109.32
51305;HTU21D;37392;50.964;6.952;2023-02-05T16:09:28;6.59;109.35
51305;HTU21D;37392;50.964;6.952;2023-02-05T16:11:55;6.52;110.57
51305;HTU21D;37392;50.964;6.952;2023-02-05T16:14:26;6.50;110.36
51305;HTU21D;37392;50.964;6.952;2023-02-05T16:19:34;6.44;111.44
51305;HTU21D;37392;50.964;6.952;2023-02-05T16:22:27;6.46;112.17
51305;HTU21D;37392;50.964;6.952;2023-02-05T16:25:10;6.45;111.47
51305;HTU21D;37392;50.964;6.952;2023-02-05T16:27:48;6.44;111.63
51305;HTU21D;37392;50.964;6.952;2023-02-05T16:30:19;6.44;111.09
51305;HTU21D;37392;50.964;6.952;2023-02-05T16:32:52;6.41;110.84
51305;HTU21D;37392;50.964;6.952;2023-02-05T16:35:38;6.44;110.80
51305;HTU21D;37392;50.964;6.952;2023-02-05T16:38:05;6.44;110.41
51305;HTU21D;37392;50.964;6.952;2023-02-05T16:40:41;6.46;110.30
51305;HTU21D;37392;50.964;6.952;2023-02-05T16:43:18;6.49;110.27
51305;HTU21D;37392;50.964;6.952;2023-02-05T16:48:39;6.51;109.02
51305;HTU21D;37392;50.964;6.952;2023-02-05T16:51:29;6.54;108.65
51305;HTU21D;37392;50.964;6.952;2023-02-05T16:54:27;6.50;108.59
51305;HTU21D;37392;50.964;6.952;2023-02-05T16:57:10;6.50;108.90
51305;HTU21D;37392;50.964;6.952;2023-02-05T16:59:51;6.46;109.94
51305;HTU21D;37392;50.964;6.952;2023-02-05T17:02:32;6.41;110.31
51305;HTU21D;37392;50.964;6.952;2023-02-05T17:05:03;6.40;109.62
51305;HTU21D;37392;50.964;6.952;2023-02-05T17:07:30;6.38;110.62
51305;HTU21D;37392;50.964;6.952;2023-02-05T17:10:18;6.27;110.84
51305;HTU21D;37392;50.964;6.952;2023-02-05T17:12:57;6.28;110.92
51305;HTU21D;37392;50.964;6.952;2023-02-05T17:15:34;6.26;111.78
51305;HTU21D;37392;50.964;6.952;2023-02-05T17:18:21;6.29;111.45
51305;HTU21D;37392;50.964;6.952;2023-02-05T17:21:18;6.20;111.25
51305;HTU21D;37392;50.964;6.952;2023-02-05T17:23:50;6.02;111.99
51305;HTU21D;37392;50.964;6.952;2023-02-05T17:26:16;5.92;112.61
51305;HTU21D;37392;50.964;6.952;2023-02-05T17:28:44;5.86;113.33
51305;HTU21D;37392;50.964;6.952;2023-02-05T17:31:11;5.87;114.13
51305;HTU21D;37392;50.964;6.952;2023-02-05T17:33:38;5.86;115.29
51305;HTU21D;37392;50.964;6.952;2023-02-05T17:36:04;5.86;115.70
51305;HTU21D;37392;50.964;6.952;2023-02-05T17:38:30;5.91;115.85
51305;HTU21D;37392;50.964;6.952;2023-02-05T17:40:55;5.91;116.47
51305;HTU21D;37392;50.964;6.952;2023-02-05T17:43:40;5.98;115.46
51305;HTU21D;37392;50.964;6.952;2023-02-05T17:46:13;6.01;115.69
51305;HTU21D;37392;50.964;6.952;2023-02-05T17:48:39;6.08;115.52
51305;HTU21D;37392;50.964;6.952;2023-02-05T17:51:05;6.06;114.67
51305;HTU21D;37392;50.964;6.952;2023-02-05T17:53:31;6.12;112.74
51305;HTU21D;37392;50.964;6.952;2023-02-05T17:55:56;6.13;113.07
51305;HTU21D;37392;50.964;6.952;2023-02-05T17:58:22;6.15;112.58
51305;HTU21D;37392;50.964;6.952;2023-02-05T18:00:47;6.20;111.79
51305;HTU21D;37392;50.964;6.952;2023-02-05T18:03:13;6.24;110.17
51305;HTU21D;37392;50.964;6.952;2023-02-05T18:05:39;6.26;109.64
51305;HTU21D;37392;50.964;6.952;2023-02-05T18:08:04;6.31;108.55
51305;HTU21D;37392;50.964;6.952;2023-02-05T18:10:31;6.35;108.27